SU1713 / VQ-BPJ 7700 Squawk Report (27th of January, 2020)

Aircraft A333 Reg No. VQ-BPJ Age 7 years old
Model A330 Jet engines 2 First flight 22-06-12
Registered 17-07-12 Rollout 04-12 Delivered 17-07-12
Construction No. 1328 Line No. N/A Series 343X
ADSHEX 424568 Airline name Aeroflot Russian Airlines Owner N/A
Airfield based Moscow-Sheremetyevo~Moscow~RA First tracked 2017-07-13 03:02:00

Flight history for VQ-BPJ

Time Lat Lon Altitude Heading Speed Vertical Rate
2020-01-27 07:09:54 GMT 48.961967 134.757935 7,425 140 341 -1472
2020-01-27 07:09:46 GMT 48.972908 134.744492 7,650 140 342 -1600
2020-01-27 07:09:35 GMT 48.984100 134.730698 7,875 140 344 -1664
2020-01-27 07:09:25 GMT 48.997997 134.713486 8,175 140 347 -1920
2020-01-27 07:09:15 GMT 49.010193 134.698441 8,525 140 346 -2112
2020-01-27 07:09:05 GMT 49.023277 134.682404 8,875 140 346 -1792
2020-01-27 07:08:54 GMT 49.035965 134.666748 9,200 140 349 -1856
2020-01-27 07:08:44 GMT 49.049534 134.649948 9,450 140 353 -1472
2020-01-27 07:08:32 GMT 49.063171 134.633118 9,775 140 356 -1920
2020-01-27 07:08:23 GMT 49.076393 134.616776 10,100 140 359 -2112
2020-01-27 07:08:12 GMT 49.089569 134.600479 10,475 140 361 -2304
2020-01-27 07:08:02 GMT 49.103165 134.583649 10,900 140 362 -2368
2020-01-27 07:07:51 GMT 49.116852 134.566681 11,250 140 365 -2048
2020-01-27 07:07:41 GMT 49.131134 134.548920 11,675 140 365 -2752
2020-01-27 07:07:29 GMT 49.144825 134.531921 12,075 140 370 -1664
2020-01-27 07:07:19 GMT 49.158417 134.515091 12,275 140 376 -960
2020-01-27 07:07:08 GMT 49.173569 134.496246 12,500 140 378 -1728
2020-01-27 07:06:58 GMT 49.187141 134.479446 12,800 140 378 -1536
2020-01-27 07:06:49 GMT 49.201340 134.461746 12,975 140 379 -512
2020-01-27 07:06:37 GMT 49.215546 134.444138 13,000 140 381 0
2020-01-27 07:06:28 GMT 49.229462 134.426804 13,000 140 381 0
2020-01-27 07:06:16 GMT 49.245026 134.407379 13,000 140 380 -64
2020-01-27 07:06:07 GMT 49.258224 134.390839 13,000 140 379 0
2020-01-27 07:05:55 GMT 49.272751 134.372696 13,000 140 380 0
2020-01-27 07:05:45 GMT 49.287319 134.354477 13,000 140 380 0
2020-01-27 07:05:35 GMT 49.300690 134.337799 13,000 140 380 0
2020-01-27 07:05:25 GMT 49.315159 134.319717 13,000 140 381 0
2020-01-27 07:05:13 GMT 49.329918 134.301208 13,000 140 381 -64
2020-01-27 07:05:03 GMT 49.345139 134.282089 13,000 140 380 0
2020-01-27 07:04:53 GMT 49.357803 134.266235 13,000 140 380 0
2020-01-27 07:04:43 GMT 49.372372 134.247864 13,000 140 381 0
2020-01-27 07:04:32 GMT 49.386292 134.230392 13,000 140 381 0
2020-01-27 07:04:22 GMT 49.401169 134.211731 13,000 140 381 0
2020-01-27 07:04:11 GMT 49.415039 134.194199 13,000 140 380 64
2020-01-27 07:04:00 GMT 49.429596 134.175888 13,000 140 380 0
2020-01-27 07:03:50 GMT 49.443550 134.158279 13,000 140 377 0
2020-01-27 07:03:40 GMT 49.457424 134.140762 13,000 140 377 0
2020-01-27 07:03:30 GMT 49.471298 134.123260 13,000 140 377 -64
2020-01-27 07:03:18 GMT 49.485867 134.104843 13,000 140 378 0
2020-01-27 07:03:09 GMT 49.500183 134.086761 13,000 140 379 0
2020-01-27 07:02:58 GMT 49.514099 134.069046 13,000 140 379 0
2020-01-27 07:02:48 GMT 49.528152 134.051193 13,000 140 380 0
2020-01-27 07:02:36 GMT 49.542938 134.032486 13,000 140 380 0
2020-01-27 07:02:27 GMT 49.556484 134.015244 13,000 140 381 0
2020-01-27 07:02:16 GMT 49.570637 133.997345 13,000 140 380 0
2020-01-27 07:02:06 GMT 49.585419 133.978561 13,000 140 380 0
2020-01-27 07:01:55 GMT 49.599361 133.960754 13,000 140 380 0
2020-01-27 07:01:44 GMT 49.614532 133.941483 13,000 140 381 0
2020-01-27 07:01:34 GMT 49.627441 133.925079 13,000 140 380 -64
2020-01-27 07:01:24 GMT 49.642456 133.905914 13,000 140 379 0
2020-01-27 07:01:13 GMT 49.655777 133.888870 13,000 140 380 0
2020-01-27 07:01:01 GMT 49.672588 133.867523 13,000 140 380 64
2020-01-27 07:00:52 GMT 49.684364 133.852448 13,000 140 380 -64
2020-01-27 07:00:41 GMT 49.698841 133.833969 13,000 140 379 0
2020-01-27 07:00:32 GMT 49.712578 133.816376 13,000 140 379 0
2020-01-27 07:00:20 GMT 49.726776 133.798187 13,000 140 379 0
2020-01-27 07:00:11 GMT 49.740925 133.779999 13,000 140 380 -64
2020-01-27 06:59:59 GMT 49.754986 133.761963 13,000 140 379 0
2020-01-27 06:59:49 GMT 49.769928 133.742737 13,000 140 379 0
2020-01-27 06:59:39 GMT 49.783009 133.726028 13,000 140 379 0
2020-01-27 06:59:27 GMT 49.799629 133.704727 13,000 140 380 0
2020-01-27 06:59:16 GMT 49.813156 133.687347 13,000 140 381 0
We lost coverage of the aircraft here for a total of 17 minutes
2020-01-27 06:41:54 GMT 51.223103 131.797333 13,000 138 375 0
2020-01-27 06:41:22 GMT 51.265606 131.737823 13,000 138 378 0
2020-01-27 06:40:22 GMT 51.324215 131.655579 13,000 138 378 0
2020-01-27 06:40:12 GMT 51.335621 131.639481 13,000 138 378 0
2020-01-27 06:40:04 GMT 51.348095 131.622086 13,000 138 376 0
2020-01-27 06:39:30 GMT 51.393021 131.558685 13,000 138 376 0
2020-01-27 06:39:18 GMT 51.405403 131.541214 13,000 138 376 0
2020-01-27 06:38:53 GMT 51.437988 131.495132 13,000 138 376 0
2020-01-27 06:38:44 GMT 51.451393 131.476135 13,000 138 376 0
2020-01-27 06:38:01 GMT 51.530487 131.363983 13,000 138 376 0
2020-01-27 06:37:24 GMT 51.577785 131.296463 13,000 138 376 0
2020-01-27 06:36:49 GMT 51.623501 131.231079 13,000 138 378 0
2020-01-27 06:36:24 GMT 51.634300 131.215591 13,000 138 377 0
2020-01-27 06:36:12 GMT 51.646587 131.198120 13,000 138 377 0
2020-01-27 06:35:48 GMT 51.680897 131.148911 13,000 138 376 0
2020-01-27 06:35:39 GMT 51.692211 131.132736 13,000 138 378 0
2020-01-27 06:35:13 GMT 51.725681 131.084290 13,000 138 376 0
2020-01-27 06:35:04 GMT 51.737179 131.067886 13,000 138 376 0
2020-01-27 06:34:33 GMT 51.773724 131.015091 13,000 138 377 0
2020-01-27 06:33:57 GMT 51.821812 130.945511 13,000 137 379 0
2020-01-27 06:33:49 GMT 51.836380 130.924301 13,000 138 377 0
2020-01-27 06:33:23 GMT 51.869713 130.876236 13,000 137 375 0
2020-01-27 06:33:15 GMT 51.881680 130.858688 13,000 138 375 0
2020-01-27 06:32:49 GMT 51.914310 130.811386 13,000 137 373 0
2020-01-27 06:32:37 GMT 51.927021 130.792862 13,000 137 373 0
2020-01-27 06:31:56 GMT 52.002899 130.681976 13,000 137 377 0
2020-01-27 06:31:30 GMT 52.014816 130.664642 13,000 137 375 0
2020-01-27 06:30:47 GMT 52.094700 130.547012 13,000 137 378 0
2020-01-27 06:30:21 GMT 52.105316 130.531311 13,000 137 378 0
2020-01-27 06:30:10 GMT 52.117279 130.513504 13,000 137 379 0
2020-01-27 06:29:47 GMT 52.149914 130.465240 13,000 137 378 0
2020-01-27 06:29:12 GMT 52.191994 130.402771 13,000 137 377 0
2020-01-27 06:29:02 GMT 52.204704 130.384094 13,000 137 377 0
2020-01-27 06:28:38 GMT 52.235706 130.337875 13,000 137 377 0
2020-01-27 06:28:30 GMT 52.250420 130.316132 13,000 137 377 0
2020-01-27 06:28:06 GMT 52.279419 130.272980 13,000 137 377 0
2020-01-27 06:27:55 GMT 52.293617 130.251862 13,000 137 377 0
2020-01-27 06:27:30 GMT 52.324482 130.205490 13,000 137 377 0
2020-01-27 06:27:21 GMT 52.337097 130.186737 13,000 137 377 0
2020-01-27 06:26:54 GMT 52.368286 130.139969 13,000 137 374 0
2020-01-27 06:26:47 GMT 52.381786 130.119644 13,000 137 376 0
2020-01-27 06:26:20 GMT 52.413910 130.071533 13,000 137 376 -64
2020-01-27 06:26:13 GMT 52.424988 130.054657 13,000 137 376 0
2020-01-27 06:25:48 GMT 52.457294 130.006012 13,000 137 375 -64
2020-01-27 06:25:40 GMT 52.466606 129.991882 13,000 137 374 0
2020-01-27 06:25:14 GMT 52.499706 129.941971 13,000 137 375 0
2020-01-27 06:25:04 GMT 52.513718 129.920700 13,000 137 374 0
2020-01-27 06:24:38 GMT 52.544487 129.874100 13,000 137 371 0
2020-01-27 06:24:27 GMT 52.556919 129.855331 13,000 137 371 0
2020-01-27 06:23:45 GMT 52.610081 129.774429 13,000 136 374 0
2020-01-27 06:23:13 GMT 52.651703 129.710922 13,000 136 374 0
2020-01-27 06:22:38 GMT 52.696480 129.642441 13,000 136 374 0
2020-01-27 06:22:27 GMT 52.709282 129.622818 13,000 136 374 0
2020-01-27 06:21:44 GMT 52.786793 129.503616 13,000 136 374 0
2020-01-27 06:21:09 GMT 52.831203 129.435196 13,000 137 372 0
2020-01-27 06:20:16 GMT 52.877106 129.364014 13,300 136 378 -1344
2020-01-27 06:20:07 GMT 52.887390 129.348007 13,475 136 381 -1472
2020-01-27 06:19:57 GMT 52.899311 129.329559 13,725 136 381 -1600
2020-01-27 06:19:34 GMT 52.931805 129.279099 14,400 136 387 -1536
2020-01-27 06:19:24 GMT 52.943581 129.260818 14,625 136 389 -1792
2020-01-27 06:18:59 GMT 52.976818 129.208878 15,425 136 389 -1472
2020-01-27 06:18:48 GMT 52.990086 129.188232 15,675 136 394 -1536
2020-01-27 06:18:14 GMT 53.035007 129.118073 16,625 136 398 -1600
2020-01-27 06:17:51 GMT 53.066479 129.068710 17,400 136 398 -2304
2020-01-27 06:17:41 GMT 53.081516 129.045334 17,825 136 396 -2240
2020-01-27 06:17:15 GMT 53.114799 128.992096 18,525 135 400 -1344
2020-01-27 06:17:07 GMT 53.126392 128.973434 18,750 135 402 -1536
2020-01-27 06:16:42 GMT 53.160793 128.916885 19,500 135 407 -1728
2020-01-27 06:16:31 GMT 53.171921 128.898468 19,750 135 408 -1920
2020-01-27 06:16:07 GMT 53.205902 128.844910 20,600 140 404 -1408
2020-01-27 06:15:56 GMT 53.221081 128.826004 20,800 149 402 -1280
2020-01-27 06:15:22 GMT 53.296585 128.820831 22,000 202 351 -3904
2020-01-27 06:15:13 GMT 53.315113 128.845474 23,650 231 305 -3648
2020-01-27 06:14:46 GMT 53.322517 128.862122 24,200 240 292 -3200
2020-01-27 06:14:21 GMT 53.335411 128.913971 24,975 256 283 -704
2020-01-27 06:14:02 GMT 53.338810 128.951141 24,975 278 281 64
2020-01-27 06:13:37 GMT 53.329220 129.003006 25,000 291 282 0
2020-01-27 06:12:55 GMT 53.300682 129.128372 25,000 292 281 0
2020-01-27 06:12:30 GMT 53.296215 129.149139 25,000 293 282 0
2020-01-27 06:12:22 GMT 53.293423 129.159393 25,000 299 285 0
2020-01-27 06:11:56 GMT 53.271683 129.203506 25,000 324 298 0
2020-01-27 06:11:47 GMT 53.257996 129.218201 25,000 332 303 64
2020-01-27 06:11:22 GMT 53.228203 129.232666 25,000 356 324 0
2020-01-27 06:11:14 GMT 53.213120 129.232819 25,000 6 335 64
2020-01-27 06:10:48 GMT 53.176716 129.213028 25,000 33 361 0
2020-01-27 06:10:13 GMT 53.144222 129.131531 25,000 82 408 -64
2020-01-27 06:10:05 GMT 53.142593 129.094528 25,000 88 418 0
2020-01-27 06:09:30 GMT 53.184303 128.949356 25,000 125 435 0
2020-01-27 06:08:33 GMT 53.241096 128.860336 25,100 136 427 0
2020-01-27 06:08:24 GMT 53.254784 128.838928 25,125 136 427 0
2020-01-27 06:07:41 GMT 53.336388 128.710159 25,125 136 424 0
2020-01-27 06:07:16 GMT 53.350121 128.688675 25,125 136 423 -128
2020-01-27 06:06:41 GMT 53.398907 128.612823 25,450 137 432 -1344
2020-01-27 06:06:17 GMT 53.437313 128.554581 26,200 137 434 -1856
2020-01-27 06:06:08 GMT 53.449791 128.535599 26,450 137 435 -1664
2020-01-27 06:05:59 GMT 53.462917 128.515244 26,675 136 438 -1280
2020-01-27 06:05:35 GMT 53.497086 128.455780 27,125 131 451 -1088
2020-01-27 06:05:26 GMT 53.510307 128.430908 27,300 131 456 -1088
2020-01-27 06:05:02 GMT 53.544476 128.366516 27,875 131 463 -1152
2020-01-27 06:04:55 GMT 53.555279 128.346008 27,975 131 468 -704
2020-01-27 06:04:23 GMT 53.621380 128.220627 28,325 131 490 -1088
2020-01-27 06:03:58 GMT 53.638000 128.188797 28,950 131 498 -1664
2020-01-27 06:03:50 GMT 53.654388 128.157700 29,250 131 500 -1792
2020-01-27 06:03:25 GMT 53.688091 128.093643 30,025 131 503 -2368
2020-01-27 06:03:16 GMT 53.703499 128.064072 30,400 131 505 -2112
2020-01-27 06:02:53 GMT 53.743301 127.987732 31,200 131 508 -2240
2020-01-27 06:02:43 GMT 53.752518 127.970123 31,550 131 508 -2368
2020-01-27 06:02:20 GMT 53.792507 127.892899 32,500 131 512 -1920
2020-01-27 06:02:11 GMT 53.802097 127.874313 32,700 131 513 -2112
2020-01-27 06:02:04 GMT 53.818298 127.842567 33,000 131 518 -1536
2020-01-27 06:01:45 GMT 53.858006 127.765259 33,450 130 522 -2496
2020-01-27 06:01:08 GMT 53.926716 127.668159 34,950 149 504 -320
2020-01-27 06:00:45 GMT 53.970711 127.638672 35,000 162 493 0
2020-01-27 06:00:02 GMT 54.061813 127.632294 35,000 192 457 0
2020-01-27 05:59:28 GMT 54.133781 127.678902 35,000 213 437 0
2020-01-27 05:58:29 GMT 54.207382 127.810577 35,000 239 415 0
2020-01-27 05:58:20 GMT 54.210079 127.819221 35,000 246 412 0
2020-01-27 05:57:46 GMT 54.231819 127.954933 35,000 263 405 0
2020-01-27 05:57:23 GMT 54.231403 128.002274 35,000 276 402 0
2020-01-27 05:57:11 GMT 54.227398 128.047272 35,000 282 400 64
2020-01-27 05:56:39 GMT 54.200909 128.171112 35,025 293 399 64
2020-01-27 05:56:05 GMT 54.154682 128.248901 35,150 320 414 -960
2020-01-27 05:55:40 GMT 54.138809 128.271927 35,575 320 415 -960
2020-01-27 05:55:31 GMT 54.124100 128.293335 35,725 320 416 -960
2020-01-27 05:55:07 GMT 54.089417 128.343903 36,000 320 415 0
2020-01-27 05:54:57 GMT 54.067677 128.375565 36,000 320 416 0
2020-01-27 05:54:47 GMT 54.051292 128.399475 36,000 320 416 0
2020-01-27 05:54:27 GMT 54.022709 128.441330 36,000 320 415 0
2020-01-27 05:53:44 GMT 53.951389 128.544724 36,000 320 415 0
2020-01-27 05:53:18 GMT 53.933281 128.570984 36,000 320 415 0
2020-01-27 05:53:10 GMT 53.920479 128.589645 36,000 320 415 0
2020-01-27 05:52:44 GMT 53.879002 128.649582 36,000 320 417 64
2020-01-27 05:52:37 GMT 53.871181 128.660812 36,000 320 417 -64
2020-01-27 05:52:05 GMT 53.803307 128.758636 36,000 320 419 -64
2020-01-27 05:51:38 GMT 53.784687 128.785294 36,000 320 419 0
2020-01-27 05:50:31 GMT 53.688091 128.923431 36,000 320 417 0
2020-01-27 05:50:22 GMT 53.673706 128.943863 36,000 320 417 0
2020-01-27 05:49:48 GMT 53.604996 129.041611 36,000 320 417 0
2020-01-27 05:49:40 GMT 53.586887 129.067307 36,000 320 417 0
2020-01-27 05:49:14 GMT 53.571617 129.089035 36,000 320 417 0
2020-01-27 05:48:47 GMT 53.534794 129.140900 36,000 321 415 64
2020-01-27 05:48:37 GMT 53.519897 129.161896 36,000 321 416 0
2020-01-27 05:48:11 GMT 53.484192 129.212067 36,000 321 415 0
2020-01-27 05:48:04 GMT 53.470318 129.231537 36,000 321 415 0
2020-01-27 05:47:30 GMT 53.410500 129.315628 36,000 321 415 0
2020-01-27 05:46:47 GMT 53.336018 129.419830 36,000 321 415 0
2020-01-27 05:46:23 GMT 53.318279 129.444397 36,000 321 416 0
2020-01-27 05:46:11 GMT 53.305477 129.462158 36,000 321 415 0
2020-01-27 05:45:49 GMT 53.270187 129.511078 36,000 321 416 0
2020-01-27 05:45:38 GMT 53.255016 129.532196 36,000 321 416 0
2020-01-27 05:45:12 GMT 53.219822 129.580917 36,000 321 416 0
2020-01-27 05:45:05 GMT 53.204414 129.602402 36,000 321 416 0
2020-01-27 05:44:39 GMT 53.170803 129.648682 36,000 321 416 0
2020-01-27 05:44:32 GMT 53.156094 129.668808 36,000 321 416 0
2020-01-27 05:44:05 GMT 53.120384 129.717926 36,000 321 417 0
2020-01-27 05:43:57 GMT 53.104187 129.740128 36,000 321 417 0
2020-01-27 05:43:30 GMT 53.055214 129.807236 36,000 321 416 0
2020-01-27 05:43:04 GMT 53.030121 129.841522 36,000 321 416 64
2020-01-27 05:42:57 GMT 53.014202 129.863419 36,000 321 416 0
2020-01-27 05:42:14 GMT 52.917885 129.994629 36,000 321 417 0
2020-01-27 05:41:39 GMT 52.881016 130.044617 36,000 321 415 0
2020-01-27 05:41:13 GMT 52.860207 130.072784 36,000 321 417 64
2020-01-27 05:41:03 GMT 52.848705 130.088165 36,000 321 417 0
2020-01-27 05:40:30 GMT 52.783718 130.175674 36,000 321 415 0
2020-01-27 05:39:55 GMT 52.738098 130.237030 36,000 322 415 0
2020-01-27 05:39:29 GMT 52.707981 130.277298 36,000 321 415 0
2020-01-27 05:39:19 GMT 52.693783 130.296432 36,000 321 415 0
2020-01-27 05:38:19 GMT 52.601280 130.419800 36,000 321 410 0
2020-01-27 05:38:09 GMT 52.588200 130.437225 36,000 321 410 0
2020-01-27 05:37:33 GMT 52.535690 130.506989 36,000 322 410 0
2020-01-27 05:37:07 GMT 52.498493 130.556107 36,000 322 411 0
2020-01-27 05:36:58 GMT 52.483505 130.575958 36,000 322 411 0
2020-01-27 05:36:31 GMT 52.444588 130.627289 36,000 322 411 0
2020-01-27 05:36:21 GMT 52.432205 130.643600 36,000 322 411 0
2020-01-27 05:36:13 GMT 52.416283 130.664474 36,000 322 411 0
2020-01-27 05:35:47 GMT 52.378204 130.714630 36,000 322 413 0
2020-01-27 05:35:39 GMT 52.363495 130.733932 36,000 322 414 0
2020-01-27 05:35:12 GMT 52.326298 130.782669 36,000 322 416 0
2020-01-27 05:35:03 GMT 52.309399 130.804642 36,000 322 416 0
2020-01-27 05:34:36 GMT 52.273693 130.851166 36,000 322 416 0
2020-01-27 05:33:52 GMT 52.179707 130.973587 36,000 322 416 0
2020-01-27 05:33:25 GMT 52.166904 130.990067 36,000 322 416 0
2020-01-27 05:33:17 GMT 52.152378 131.008820 36,000 322 416 0
2020-01-27 05:32:51 GMT 52.115185 131.057007 36,000 322 416 0
2020-01-27 05:32:15 GMT 52.059879 131.128494 36,000 322 416 0
2020-01-27 05:32:06 GMT 52.048286 131.143478 36,000 322 416 0
2020-01-27 05:31:23 GMT 51.955883 131.261902 36,000 322 415 0
2020-01-27 05:30:47 GMT 51.902020 131.330566 36,000 322 415 0
2020-01-27 05:30:20 GMT 51.884705 131.352692 36,000 322 414 0
2020-01-27 05:29:44 GMT 51.818321 131.437225 36,000 322 411 0
2020-01-27 05:29:18 GMT 51.795509 131.466217 36,000 322 410 0
2020-01-27 05:29:10 GMT 51.782383 131.482620 36,000 322 410 0
2020-01-27 05:28:44 GMT 51.743092 131.532288 36,000 322 410 0
2020-01-27 05:28:26 GMT 51.709110 131.575317 36,000 322 410 0
2020-01-27 05:28:02 GMT 51.674706 131.618805 36,000 322 410 0
2020-01-27 05:27:51 GMT 51.662796 131.633575 36,000 323 411 0
2020-01-27 05:27:27 GMT 51.618610 131.688995 36,000 323 411 0
2020-01-27 05:27:17 GMT 51.612419 131.696930 36,000 322 410 0
2020-01-27 05:26:42 GMT 51.552322 131.772308 36,000 322 412 0
2020-01-27 05:26:15 GMT 51.521595 131.810837 36,000 322 412 0
2020-01-27 05:25:41 GMT 51.457912 131.889801 36,000 323 412 0
2020-01-27 05:25:32 GMT 51.454094 131.894379 36,000 323 412 0
2020-01-27 05:24:56 GMT 51.400791 131.960373 36,000 323 411 0
2020-01-27 05:24:10 GMT 51.296795 132.089767 36,000 322 410 0
2020-01-27 05:23:38 GMT 51.281620 132.108765 36,000 322 409 0
2020-01-27 05:22:48 GMT 51.183811 132.227173 36,000 325 412 0
2020-01-27 05:22:22 GMT 51.168404 132.244720 36,000 325 412 0
2020-01-27 05:21:56 GMT 51.125019 132.293777 36,000 325 412 0
2020-01-27 05:21:21 GMT 51.073715 132.351685 36,000 325 415 0
2020-01-27 05:21:11 GMT 51.057098 132.370300 36,000 325 415 0
2020-01-27 05:20:36 GMT 50.998394 132.436218 36,000 325 416 0
2020-01-27 05:20:02 GMT 50.929592 132.513275 36,000 325 416 0
2020-01-27 05:19:27 GMT 50.862511 132.588120 36,000 325 416 0
2020-01-27 05:18:16 GMT 50.763401 132.698212 36,000 325 414 0
2020-01-27 05:17:50 GMT 50.733700 132.731171 36,000 325 414 0
2020-01-27 05:17:33 GMT 50.702091 132.766113 36,000 325 412 0
2020-01-27 05:17:08 GMT 50.675091 132.795868 36,000 325 411 0
2020-01-27 05:16:57 GMT 50.659309 132.813278 36,000 325 411 0
2020-01-27 05:15:49 GMT 50.559494 132.922867 36,000 326 413 0
2020-01-27 05:15:46 GMT 50.556381 132.926254 36,000 326 413 0
2020-01-27 05:15:37 GMT 50.540588 132.943604 36,000 326 413 0
2020-01-27 05:15:25 GMT 50.523376 132.962463 36,000 326 413 0
2020-01-27 05:14:57 GMT 50.478928 133.011261 36,000 326 414 0
2020-01-27 05:14:54 GMT 50.474216 133.016373 36,000 326 413 0
2020-01-27 05:14:42 GMT 50.454899 133.037308 36,000 326 414 0
2020-01-27 05:14:33 GMT 50.441849 133.051437 36,000 326 413 0
2020-01-27 05:14:24 GMT 50.425323 133.069443 36,000 326 414 0
2020-01-27 05:14:12 GMT 50.408718 133.087555 36,000 326 413 0
2020-01-27 05:13:24 GMT 50.332699 133.169952 36,000 326 412 0
2020-01-27 05:13:18 GMT 50.322739 133.180817 36,000 326 412 0
2020-01-27 05:13:10 GMT 50.310680 133.193863 36,000 326 411 0
2020-01-27 05:13:00 GMT 50.293968 133.211975 36,000 326 411 0
2020-01-27 05:12:49 GMT 50.277859 133.229340 36,000 326 411 0
2020-01-27 05:12:39 GMT 50.261799 133.246719 36,000 326 411 0
2020-01-27 05:12:27 GMT 50.244919 133.264877 36,000 326 411 0
2020-01-27 05:12:18 GMT 50.228004 133.283020 36,000 326 412 0
2020-01-27 05:12:07 GMT 50.212326 133.299942 36,000 326 413 0
2020-01-27 05:11:57 GMT 50.195847 133.317719 36,000 326 414 0
2020-01-27 05:11:46 GMT 50.179497 133.335342 36,000 326 415 0
2020-01-27 05:11:35 GMT 50.162430 133.353714 36,000 326 416 0
2020-01-27 05:11:25 GMT 50.145931 133.371429 36,000 326 417 0
2020-01-27 05:11:14 GMT 50.128464 133.390137 36,000 326 417 64
2020-01-27 05:11:04 GMT 50.112900 133.406769 36,000 326 417 0
2020-01-27 05:10:53 GMT 50.096027 133.424576 36,000 326 414 64
2020-01-27 05:10:43 GMT 50.079575 133.441971 35,950 326 413 320
2020-01-27 05:10:32 GMT 50.063210 133.459320 35,875 326 412 448
2020-01-27 05:10:23 GMT 50.046570 133.476944 35,800 326 410 512
2020-01-27 05:10:12 GMT 50.030575 133.493683 35,700 326 409 640
2020-01-27 05:10:02 GMT 50.014141 133.510986 35,600 326 408 704
2020-01-27 05:09:51 GMT 49.997589 133.528336 35,475 326 407 704
2020-01-27 05:09:41 GMT 49.981415 133.545349 35,350 326 406 768
2020-01-27 05:09:30 GMT 49.965225 133.562302 35,200 326 406 896
2020-01-27 05:09:20 GMT 49.948734 133.579575 35,025 326 406 960
2020-01-27 05:09:09 GMT 49.932541 133.596573 34,875 326 406 896
2020-01-27 05:08:59 GMT 49.916008 133.613800 34,725 326 406 832
2020-01-27 05:08:48 GMT 49.899811 133.630753 34,575 327 406 832
2020-01-27 05:08:38 GMT 49.883652 133.647598 34,450 327 406 768
2020-01-27 05:08:27 GMT 49.867310 133.664658 34,300 326 405 832
2020-01-27 05:08:17 GMT 49.851013 133.681641 34,150 326 405 832
2020-01-27 05:08:05 GMT 49.833801 133.699631 34,000 326 404 768
2020-01-27 05:07:56 GMT 49.818344 133.715714 33,900 326 403 704
2020-01-27 05:07:45 GMT 49.802467 133.732269 33,775 327 401 640
2020-01-27 05:07:34 GMT 49.786194 133.749222 33,650 326 400 768
2020-01-27 05:07:24 GMT 49.770401 133.765701 33,525 327 399 832
2020-01-27 05:07:13 GMT 49.753868 133.782898 33,350 327 399 1024
2020-01-27 05:07:03 GMT 49.737854 133.799515 33,175 327 399 1152
2020-01-27 05:06:52 GMT 49.722073 133.815933 32,975 327 399 1216
2020-01-27 05:06:43 GMT 49.705856 133.832779 32,750 327 399 1216
2020-01-27 05:06:31 GMT 49.689880 133.849258 32,550 327 400 1088
2020-01-27 05:06:22 GMT 49.673611 133.866104 32,350 327 400 1088
2020-01-27 05:06:10 GMT 49.657608 133.882645 32,175 327 400 1088
2020-01-27 05:06:01 GMT 49.641582 133.899139 31,975 327 400 1024
2020-01-27 05:05:49 GMT 49.624969 133.916260 31,800 327 400 1024
2020-01-27 05:05:40 GMT 49.609131 133.932587 31,625 327 400 960
2020-01-27 05:05:29 GMT 49.593338 133.948853 31,475 327 398 960
2020-01-27 05:05:19 GMT 49.577248 133.965286 31,275 327 397 1152
2020-01-27 05:05:08 GMT 49.561066 133.981964 31,075 327 397 1280
2020-01-27 05:04:58 GMT 49.545456 133.998001 30,825 327 399 1344
2020-01-27 05:04:47 GMT 49.529343 134.014557 30,600 327 399 1280
2020-01-27 05:04:37 GMT 49.513287 134.031128 30,400 326 399 1152
2020-01-27 05:04:25 GMT 49.496613 134.048447 30,225 327 397 896
2020-01-27 05:04:16 GMT 49.480087 134.065216 30,050 329 398 1024
2020-01-27 05:04:04 GMT 49.464172 134.079895 29,850 330 397 1152
2020-01-27 05:03:54 GMT 49.447998 134.094421 29,675 330 397 1152
2020-01-27 05:03:44 GMT 49.431702 134.109024 29,450 330 396 1152
2020-01-27 05:03:33 GMT 49.414967 134.124054 29,275 330 396 1088
2020-01-27 05:03:23 GMT 49.398396 134.138809 29,075 330 394 1088
2020-01-27 05:03:12 GMT 49.381577 134.153915 28,875 330 393 1088
2020-01-27 05:03:01 GMT 49.364040 134.169525 28,675 330 392 1088
2020-01-27 05:02:51 GMT 49.348892 134.183075 28,500 330 391 1152
2020-01-27 05:02:42 GMT 49.332382 134.197784 28,275 330 389 1280
2020-01-27 05:02:30 GMT 49.316208 134.212158 28,075 330 388 1216
2020-01-27 05:02:21 GMT 49.300404 134.226181 27,850 330 387 1280
2020-01-27 05:02:10 GMT 49.284157 134.240707 27,625 330 386 1280
2020-01-27 05:02:00 GMT 49.267632 134.255386 27,425 330 386 1216
2020-01-27 05:01:49 GMT 49.251617 134.269623 27,200 330 385 1344
2020-01-27 05:01:39 GMT 49.235321 134.284058 26,950 330 384 1536
2020-01-27 05:01:28 GMT 49.219681 134.297958 26,675 330 384 1600
2020-01-27 05:01:18 GMT 49.203575 134.312271 26,400 330 384 1536
2020-01-27 05:01:07 GMT 49.187187 134.326721 26,125 330 382 1536
2020-01-27 05:00:57 GMT 49.171314 134.340820 25,850 330 381 1600
2020-01-27 05:00:45 GMT 49.154552 134.355637 25,550 330 380 1600
2020-01-27 05:00:36 GMT 49.139332 134.369080 25,300 330 379 1536
2020-01-27 05:00:24 GMT 49.123131 134.383392 25,025 330 377 1344
2020-01-27 05:00:15 GMT 49.107788 134.396942 24,800 330 375 1408
2020-01-27 05:00:04 GMT 49.092175 134.410721 24,550 330 373 1600
2020-01-27 04:59:54 GMT 49.076206 134.424728 24,250 330 372 1664
2020-01-27 04:59:43 GMT 49.060913 134.438217 23,950 330 370 1728
2020-01-27 04:59:33 GMT 49.044891 134.452301 23,625 330 369 1728
2020-01-27 04:59:22 GMT 49.029842 134.465576 23,350 330 368 1536
2020-01-27 04:59:11 GMT 49.013992 134.479553 23,100 330 365 1408
2020-01-27 04:59:01 GMT 48.999119 134.492599 22,850 330 362 1728
2020-01-27 04:58:50 GMT 48.983780 134.506104 22,525 331 360 1920
2020-01-27 04:58:39 GMT 48.968204 134.519714 22,175 331 360 2112
2020-01-27 04:58:29 GMT 48.953522 134.532654 21,800 331 360 2176
2020-01-27 04:58:20 GMT 48.938553 134.545761 21,425 331 360 2176
2020-01-27 04:58:08 GMT 48.923561 134.558884 21,050 330 359 2176
2020-01-27 04:57:59 GMT 48.908340 134.572174 20,675 331 358 2176
2020-01-27 04:57:48 GMT 48.893723 134.584976 20,300 331 357 2240
2020-01-27 04:57:38 GMT 48.878407 134.598343 19,875 331 357 2432
2020-01-27 04:57:27 GMT 48.863800 134.611038 19,450 331 357 2432
2020-01-27 04:57:17 GMT 48.848511 134.624420 19,000 331 357 2752
2020-01-27 04:57:06 GMT 48.833725 134.637314 18,550 331 358 2496
2020-01-27 04:56:56 GMT 48.818539 134.650528 18,100 331 357 2560
2020-01-27 04:56:45 GMT 48.803738 134.663406 17,650 330 357 2560
2020-01-27 04:56:35 GMT 48.788700 134.676483 17,225 331 356 2240
2020-01-27 04:56:24 GMT 48.773712 134.689499 16,825 331 355 2240
2020-01-27 04:56:14 GMT 48.758926 134.702316 16,450 331 353 2240
2020-01-27 04:56:03 GMT 48.743732 134.715591 16,050 331 350 2176
2020-01-27 04:55:53 GMT 48.729580 134.727875 15,675 331 348 2368
2020-01-27 04:55:41 GMT 48.713844 134.741455 15,200 331 345 2624
2020-01-27 04:55:31 GMT 48.699966 134.753510 14,775 331 345 2560
2020-01-27 04:55:21 GMT 48.685589 134.765961 14,325 331 344 2496

Making use of Plane Finder data

You are free to use the raw flight data, aircraft information and images provided in this report for your own purposes provided the data is correctly attributed to Plane Finder. We ask that you please credit Plane Finder and link to planefinder.net in close proximity to the content.

Optionally one of the following logos (no smaller then 150x24px) can be used and must link to planefinder.net

Embedding the Plane Finder map

You are welcome to embed the Plane Finder playback map on your website to offer visitors a more interactive experience. We suggest using the following HTML code:

<iframe src="//planefinder.net/data/report/SU1713-VQ-BPJ-7700-squawk-2020-01-27/map" width="800" height="600" seamless="seamless"></iframe>

Where our data comes from

Plane Finder has a global network of data feeds and antenna radars that receive data broadcast directly from aircraft. The primary technologies used are ADS-B and MLAT. We also show feeds from the FAA and a FLARM glider feed.

Click here to find out more about the Plane Finder network.

How we collect our data